sensor_id;sensor_type;location;lat;lon;timestamp;pressure;altitude;pressure_sealevel;temperature;humidity
70011;BME280;59543;37.950;-122.338;2023-01-29T00:02:19;101237.00;;;12.27;66.34
70011;BME280;59543;37.950;-122.338;2023-01-29T00:04:45;101234.06;;;12.20;67.38
70011;BME280;59543;37.950;-122.338;2023-01-29T00:07:11;101240.78;;;12.06;68.17
70011;BME280;59543;37.950;-122.338;2023-01-29T00:09:37;101252.84;;;12.02;68.64
70011;BME280;59543;37.950;-122.338;2023-01-29T00:12:03;101245.75;;;12.01;69.63
70011;BME280;59543;37.950;-122.338;2023-01-29T00:14:29;101248.16;;;12.04;69.58
70011;BME280;59543;37.950;-122.338;2023-01-29T00:16:55;101241.53;;;11.89;69.21
70011;BME280;59543;37.950;-122.338;2023-01-29T00:19:20;101234.00;;;11.73;69.88
70011;BME280;59543;37.950;-122.338;2023-01-29T00:21:46;101234.28;;;11.80;70.39
70011;BME280;59543;37.950;-122.338;2023-01-29T00:24:12;101230.59;;;11.81;69.81
70011;BME280;59543;37.950;-122.338;2023-01-29T00:26:38;101226.88;;;11.82;70.46
70011;BME280;59543;37.950;-122.338;2023-01-29T00:29:04;101227.66;;;11.64;70.34
70011;BME280;59543;37.950;-122.338;2023-01-29T00:31:30;101220.53;;;11.83;69.92
70011;BME280;59543;37.950;-122.338;2023-01-29T00:33:56;101222.81;;;11.78;70.11
70011;BME280;59543;37.950;-122.338;2023-01-29T00:36:22;101214.41;;;11.81;70.28
70011;BME280;59543;37.950;-122.338;2023-01-29T00:38:58;101214.19;;;11.64;71.03
70011;BME280;59543;37.950;-122.338;2023-01-29T00:41:30;101219.56;;;11.55;71.44
70011;BME280;59543;37.950;-122.338;2023-01-29T00:44:15;101221.00;;;11.39;71.51
70011;BME280;59543;37.950;-122.338;2023-01-29T00:46:59;101221.56;;;11.33;71.99
70011;BME280;59543;37.950;-122.338;2023-01-29T00:49:25;101215.88;;;11.46;71.99
70011;BME280;59543;37.950;-122.338;2023-01-29T00:51:51;101217.31;;;11.31;72.53
70011;BME280;59543;37.950;-122.338;2023-01-29T00:54:35;101203.72;;;11.23;73.53
70011;BME280;59543;37.950;-122.338;2023-01-29T00:57:01;101216.19;;;11.04;74.42
70011;BME280;59543;37.950;-122.338;2023-01-29T00:59:27;101219.16;;;11.01;75.01
70011;BME280;59543;37.950;-122.338;2023-01-29T01:01:53;101224.13;;;11.06;74.93
70011;BME280;59543;37.950;-122.338;2023-01-29T01:04:37;101218.00;;;11.04;75.29
70011;BME280;59543;37.950;-122.338;2023-01-29T01:07:03;101224.66;;;10.90;75.60
70011;BME280;59543;37.950;-122.338;2023-01-29T01:09:29;101233.88;;;10.97;75.44
70011;BME280;59543;37.950;-122.338;2023-01-29T01:12:13;101243.91;;;10.85;75.90
70011;BME280;59543;37.950;-122.338;2023-01-29T01:14:39;101240.63;;;10.72;76.21
70011;BME280;59543;37.950;-122.338;2023-01-29T01:17:07;101261.16;;;10.63;76.39
70011;BME280;59543;37.950;-122.338;2023-01-29T01:19:34;101260.72;;;10.68;76.11
70011;BME280;59543;37.950;-122.338;2023-01-29T01:22:00;101263.47;;;10.78;75.72
70011;BME280;59543;37.950;-122.338;2023-01-29T01:24:25;101268.34;;;10.53;76.54
70011;BME280;59543;37.950;-122.338;2023-01-29T01:26:51;101266.44;;;10.44;76.81
70011;BME280;59543;37.950;-122.338;2023-01-29T01:29:17;101264.91;;;10.41;77.33
70011;BME280;59543;37.950;-122.338;2023-01-29T01:31:43;101234.44;;;10.41;77.00
70011;BME280;59543;37.950;-122.338;2023-01-29T01:34:09;101241.94;;;10.37;77.29
70011;BME280;59543;37.950;-122.338;2023-01-29T01:36:35;101240.91;;;10.28;77.08
70011;BME280;59543;37.950;-122.338;2023-01-29T01:39:01;101242.41;;;10.21;77.67
70011;BME280;59543;37.950;-122.338;2023-01-29T01:41:28;101241.78;;;10.29;77.47
70011;BME280;59543;37.950;-122.338;2023-01-29T01:43:55;101251.19;;;10.23;78.00
70011;BME280;59543;37.950;-122.338;2023-01-29T01:46:27;101249.97;;;10.27;77.43
70011;BME280;59543;37.950;-122.338;2023-01-29T01:48:57;101244.25;;;10.21;77.40
70011;BME280;59543;37.950;-122.338;2023-01-29T01:51:26;101243.47;;;10.09;77.82
70011;BME280;59543;37.950;-122.338;2023-01-29T01:53:54;101237.47;;;9.96;78.01
70011;BME280;59543;37.950;-122.338;2023-01-29T01:56:24;101230.31;;;10.06;77.86
70011;BME280;59543;37.950;-122.338;2023-01-29T01:58:55;101219.56;;;10.06;77.29
70011;BME280;59543;37.950;-122.338;2023-01-29T02:01:23;101237.00;;;9.91;78.21
70011;BME280;59543;37.950;-122.338;2023-01-29T02:03:57;101240.16;;;9.96;78.11
70011;BME280;59543;37.950;-122.338;2023-01-29T02:06:42;101233.13;;;9.83;78.79
70011;BME280;59543;37.950;-122.338;2023-01-29T02:09:40;101228.09;;;9.90;78.59
70011;BME280;59543;37.950;-122.338;2023-01-29T02:12:08;101229.22;;;9.67;78.64
70011;BME280;59543;37.950;-122.338;2023-01-29T02:14:39;101226.81;;;9.64;79.45
70011;BME280;59543;37.950;-122.338;2023-01-29T02:17:05;101225.97;;;9.63;79.40
70011;BME280;59543;37.950;-122.338;2023-01-29T02:27:39;101222.28;;;9.64;79.09
70011;BME280;59543;37.950;-122.338;2023-01-29T02:30:08;101220.75;;;9.50;79.82
70011;BME280;59543;37.950;-122.338;2023-01-29T02:35:08;101213.31;;;9.54;79.77
70011;BME280;59543;37.950;-122.338;2023-01-29T02:40:35;101194.44;;;9.44;79.91
70011;BME280;59543;37.950;-122.338;2023-01-29T02:45:52;101192.41;;;9.36;80.23
70011;BME280;59543;37.950;-122.338;2023-01-29T02:48:22;101196.19;;;9.34;80.04
70011;BME280;59543;37.950;-122.338;2023-01-29T02:50:55;101215.63;;;9.26;80.38
70011;BME280;59543;37.950;-122.338;2023-01-29T02:53:37;101219.56;;;9.22;80.38
70011;BME280;59543;37.950;-122.338;2023-01-29T02:56:16;101222.31;;;9.32;80.18
70011;BME280;59543;37.950;-122.338;2023-01-29T02:58:55;101229.25;;;9.34;78.90
70011;BME280;59543;37.950;-122.338;2023-01-29T03:01:30;101236.00;;;9.29;78.95
70011;BME280;59543;37.950;-122.338;2023-01-29T03:04:21;101231.22;;;9.32;78.13
70011;BME280;59543;37.950;-122.338;2023-01-29T03:06:53;101236.28;;;9.14;78.55
70011;BME280;59543;37.950;-122.338;2023-01-29T03:09:30;101243.31;;;9.06;78.75
70011;BME280;59543;37.950;-122.338;2023-01-29T03:12:01;101243.56;;;9.03;78.66
70011;BME280;59543;37.950;-122.338;2023-01-29T03:14:43;101240.88;;;9.03;77.71
70011;BME280;59543;37.950;-122.338;2023-01-29T03:17:30;101230.41;;;8.88;78.06
70011;BME280;59543;37.950;-122.338;2023-01-29T03:19:59;101233.13;;;8.77;77.60
70011;BME280;59543;37.950;-122.338;2023-01-29T03:22:26;101225.53;;;8.93;77.21
70011;BME280;59543;37.950;-122.338;2023-01-29T03:24:56;101223.56;;;8.84;77.31
70011;BME280;59543;37.950;-122.338;2023-01-29T03:27:45;101231.50;;;8.86;77.33
70011;BME280;59543;37.950;-122.338;2023-01-29T03:30:32;101235.38;;;8.93;77.17
70011;BME280;59543;37.950;-122.338;2023-01-29T03:33:18;101248.38;;;8.77;77.41
70011;BME280;59543;37.950;-122.338;2023-01-29T03:36:06;101244.09;;;8.85;77.65
70011;BME280;59543;37.950;-122.338;2023-01-29T03:38:30;101237.63;;;8.77;77.39
70011;BME280;59543;37.950;-122.338;2023-01-29T03:40:58;101238.50;;;8.66;77.64
70011;BME280;59543;37.950;-122.338;2023-01-29T03:46:17;101238.28;;;8.46;78.16
70011;BME280;59543;37.950;-122.338;2023-01-29T03:51:34;101230.34;;;8.22;78.54
70011;BME280;59543;37.950;-122.338;2023-01-29T04:01:29;101229.94;;;7.82;81.20
70011;BME280;59543;37.950;-122.338;2023-01-29T04:04:11;101233.72;;;7.79;80.24
70011;BME280;59543;37.950;-122.338;2023-01-29T04:06:40;101232.41;;;7.85;79.85
70011;BME280;59543;37.950;-122.338;2023-01-29T04:09:12;101233.84;;;7.78;79.99
70011;BME280;59543;37.950;-122.338;2023-01-29T04:11:41;101241.25;;;7.74;79.81
70011;BME280;59543;37.950;-122.338;2023-01-29T04:14:09;101250.88;;;7.77;79.48
70011;BME280;59543;37.950;-122.338;2023-01-29T04:16:40;101245.72;;;7.63;79.76
70011;BME280;59543;37.950;-122.338;2023-01-29T04:19:06;101237.94;;;7.60;80.95
70011;BME280;59543;37.950;-122.338;2023-01-29T04:21:32;101240.88;;;7.68;81.11
70011;BME280;59543;37.950;-122.338;2023-01-29T04:24:02;101230.00;;;7.58;80.75
70011;BME280;59543;37.950;-122.338;2023-01-29T04:34:39;101210.13;;;7.38;81.88
70011;BME280;59543;37.950;-122.338;2023-01-29T04:37:15;101214.03;;;7.34;81.74
70011;BME280;59543;37.950;-122.338;2023-01-29T04:42:14;101204.72;;;7.27;81.42
70011;BME280;59543;37.950;-122.338;2023-01-29T04:45:00;101208.63;;;7.23;81.60
70011;BME280;59543;37.950;-122.338;2023-01-29T04:47:32;101209.56;;;7.22;81.83
70011;BME280;59543;37.950;-122.338;2023-01-29T04:52:35;101201.38;;;7.12;82.34
70011;BME280;59543;37.950;-122.338;2023-01-29T04:57:47;101207.56;;;7.01;83.14
70011;BME280;59543;37.950;-122.338;2023-01-29T05:00:21;101209.50;;;6.99;82.87
70011;BME280;59543;37.950;-122.338;2023-01-29T05:02:51;101207.56;;;7.01;82.70
70011;BME280;59543;37.950;-122.338;2023-01-29T05:05:18;101213.00;;;7.00;82.72
70011;BME280;59543;37.950;-122.338;2023-01-29T05:07:45;101210.25;;;7.01;82.58
70011;BME280;59543;37.950;-122.338;2023-01-29T05:10:12;101207.78;;;6.98;82.80
70011;BME280;59543;37.950;-122.338;2023-01-29T05:12:38;101197.31;;;6.95;83.01
70011;BME280;59543;37.950;-122.338;2023-01-29T05:15:08;101199.34;;;6.92;82.67
70011;BME280;59543;37.950;-122.338;2023-01-29T05:17:37;101196.19;;;6.86;82.37
70011;BME280;59543;37.950;-122.338;2023-01-29T05:20:02;101191.78;;;6.85;82.46
70011;BME280;59543;37.950;-122.338;2023-01-29T05:22:28;101198.44;;;6.80;82.62
70011;BME280;59543;37.950;-122.338;2023-01-29T05:24:55;101202.53;;;6.73;83.03
70011;BME280;59543;37.950;-122.338;2023-01-29T05:27:26;101202.91;;;6.68;83.08
70011;BME280;59543;37.950;-122.338;2023-01-29T05:30:12;101200.69;;;6.62;83.41
70011;BME280;59543;37.950;-122.338;2023-01-29T05:32:38;101193.50;;;6.62;83.39
70011;BME280;59543;37.950;-122.338;2023-01-29T05:35:04;101194.34;;;6.63;83.34
70011;BME280;59543;37.950;-122.338;2023-01-29T05:37:30;101190.09;;;6.60;83.31
70011;BME280;59543;37.950;-122.338;2023-01-29T05:39:56;101188.47;;;6.58;83.43
70011;BME280;59543;37.950;-122.338;2023-01-29T05:42:22;101189.22;;;6.60;84.29
70011;BME280;59543;37.950;-122.338;2023-01-29T05:44:48;101185.72;;;6.59;84.72
70011;BME280;59543;37.950;-122.338;2023-01-29T05:47:17;101190.09;;;6.60;84.78
70011;BME280;59543;37.950;-122.338;2023-01-29T05:49:43;101185.72;;;6.59;84.95
70011;BME280;59543;37.950;-122.338;2023-01-29T05:52:09;101176.63;;;6.62;86.66
70011;BME280;59543;37.950;-122.338;2023-01-29T05:54:35;101180.47;;;6.82;87.44
70011;BME280;59543;37.950;-122.338;2023-01-29T05:57:01;101175.94;;;7.06;88.09
70011;BME280;59543;37.950;-122.338;2023-01-29T05:59:26;101170.31;;;7.22;87.77
70011;BME280;59543;37.950;-122.338;2023-01-29T06:01:55;101167.97;;;7.18;87.78
70011;BME280;59543;37.950;-122.338;2023-01-29T06:04:21;101170.31;;;7.22;88.36
70011;BME280;59543;37.950;-122.338;2023-01-29T06:06:47;101166.91;;;7.20;88.18
70011;BME280;59543;37.950;-122.338;2023-01-29T06:09:13;101181.16;;;7.32;88.40
70011;BME280;59543;37.950;-122.338;2023-01-29T06:11:39;101176.75;;;7.31;87.97
70011;BME280;59543;37.950;-122.338;2023-01-29T06:14:05;101177.88;;;7.28;88.93
70011;BME280;59543;37.950;-122.338;2023-01-29T06:16:31;101179.75;;;7.50;87.49
70011;BME280;59543;37.950;-122.338;2023-01-29T06:18:57;101182.56;;;7.60;87.21
70011;BME280;59543;37.950;-122.338;2023-01-29T06:21:23;101187.41;;;7.44;87.63
70011;BME280;59543;37.950;-122.338;2023-01-29T06:23:50;101191.91;;;7.43;87.76
70011;BME280;59543;37.950;-122.338;2023-01-29T06:26:16;101186.66;;;7.42;88.69
70011;BME280;59543;37.950;-122.338;2023-01-29T06:28:42;101184.13;;;7.40;88.66
70011;BME280;59543;37.950;-122.338;2023-01-29T06:31:10;101182.38;;;7.39;89.22
70011;BME280;59543;37.950;-122.338;2023-01-29T06:33:36;101177.31;;;7.47;88.82
70011;BME280;59543;37.950;-122.338;2023-01-29T06:36:03;101180.47;;;7.41;88.68
70011;BME280;59543;37.950;-122.338;2023-01-29T06:38:29;101181.31;;;7.42;89.10
70011;BME280;59543;37.950;-122.338;2023-01-29T06:40:55;101171.22;;;7.45;88.94
70011;BME280;59543;37.950;-122.338;2023-01-29T06:43:21;101169.88;;;7.51;89.17
70011;BME280;59543;37.950;-122.338;2023-01-29T06:45:51;101162.22;;;7.46;88.72
70011;BME280;59543;37.950;-122.338;2023-01-29T06:48:18;101162.34;;;7.45;89.05
70011;BME280;59543;37.950;-122.338;2023-01-29T06:50:44;101165.38;;;7.40;88.52
70011;BME280;59543;37.950;-122.338;2023-01-29T06:53:10;101156.97;;;7.45;89.14
70011;BME280;59543;37.950;-122.338;2023-01-29T06:55:36;101160.75;;;7.42;88.99
70011;BME280;59543;37.950;-122.338;2023-01-29T06:58:05;101158.44;;;7.38;89.07
70011;BME280;59543;37.950;-122.338;2023-01-29T07:00:31;101161.75;;;7.52;88.88
70011;BME280;59543;37.950;-122.338;2023-01-29T07:02:57;101166.00;;;7.66;88.92
70011;BME280;59543;37.950;-122.338;2023-01-29T07:05:23;101162.38;;;7.78;88.17
70011;BME280;59543;37.950;-122.338;2023-01-29T07:07:49;101162.00;;;7.72;88.15
70011;BME280;59543;37.950;-122.338;2023-01-29T07:10:15;101154.22;;;7.69;87.95
70011;BME280;59543;37.950;-122.338;2023-01-29T07:12:40;101149.47;;;7.61;88.29
70011;BME280;59543;37.950;-122.338;2023-01-29T07:15:06;101154.34;;;7.67;88.15
70011;BME280;59543;37.950;-122.338;2023-01-29T07:17:32;101150.56;;;7.59;88.03
70011;BME280;59543;37.950;-122.338;2023-01-29T07:19:58;101148.13;;;7.55;88.16
70011;BME280;59543;37.950;-122.338;2023-01-29T07:22:24;101142.28;;;7.50;87.90
70011;BME280;59543;37.950;-122.338;2023-01-29T07:24:50;101143.34;;;7.48;87.98
70011;BME280;59543;37.950;-122.338;2023-01-29T07:27:16;101133.50;;;7.48;88.21
70011;BME280;59543;37.950;-122.338;2023-01-29T07:29:41;101133.03;;;7.43;87.91
70011;BME280;59543;37.950;-122.338;2023-01-29T07:32:07;101133.72;;;7.45;88.18
70011;BME280;59543;37.950;-122.338;2023-01-29T07:34:33;101133.13;;;7.42;87.68
70011;BME280;59543;37.950;-122.338;2023-01-29T07:36:59;101120.72;;;7.41;87.78
70011;BME280;59543;37.950;-122.338;2023-01-29T07:39:25;101124.34;;;7.40;87.84
70011;BME280;59543;37.950;-122.338;2023-01-29T07:41:50;101122.78;;;7.37;88.16
70011;BME280;59543;37.950;-122.338;2023-01-29T07:44:16;101120.84;;;7.39;88.05
70011;BME280;59543;37.950;-122.338;2023-01-29T07:46:42;101125.22;;;7.40;87.88
70011;BME280;59543;37.950;-122.338;2023-01-29T07:49:08;101123.03;;;7.45;87.98
70011;BME280;59543;37.950;-122.338;2023-01-29T07:51:34;101114.06;;;7.46;87.78
70011;BME280;59543;37.950;-122.338;2023-01-29T07:54:00;101117.69;;;7.45;87.56
70011;BME280;59543;37.950;-122.338;2023-01-29T07:56:25;101113.31;;;7.44;88.01
70011;BME280;59543;37.950;-122.338;2023-01-29T07:58:51;101108.69;;;7.69;87.35
70011;BME280;59543;37.950;-122.338;2023-01-29T08:01:17;101107.50;;;7.62;88.46
70011;BME280;59543;37.950;-122.338;2023-01-29T08:03:43;101103.59;;;7.77;88.20
70011;BME280;59543;37.950;-122.338;2023-01-29T08:06:09;101102.84;;;7.75;89.15
70011;BME280;59543;37.950;-122.338;2023-01-29T08:08:35;101098.25;;;7.88;89.39
70011;BME280;59543;37.950;-122.338;2023-01-29T08:11:01;101101.16;;;7.85;89.60
70011;BME280;59543;37.950;-122.338;2023-01-29T08:13:27;101104.56;;;7.87;89.42
70011;BME280;59543;37.950;-122.338;2023-01-29T08:15:53;101103.69;;;7.87;89.85
70011;BME280;59543;37.950;-122.338;2023-01-29T08:18:19;101102.22;;;7.94;89.66
70011;BME280;59543;37.950;-122.338;2023-01-29T08:20:45;101092.13;;;7.97;89.25
70011;BME280;59543;37.950;-122.338;2023-01-29T08:23:12;101088.22;;;8.01;89.19
70011;BME280;59543;37.950;-122.338;2023-01-29T08:25:38;101085.16;;;8.06;88.95
70011;BME280;59543;37.950;-122.338;2023-01-29T08:28:04;101077.94;;;8.18;87.94
70011;BME280;59543;37.950;-122.338;2023-01-29T08:30:30;101077.44;;;8.24;86.89
70011;BME280;59543;37.950;-122.338;2023-01-29T08:32:56;101069.88;;;8.29;86.34
70011;BME280;59543;37.950;-122.338;2023-01-29T08:35:23;101074.25;;;8.30;85.17
70011;BME280;59543;37.950;-122.338;2023-01-29T08:38:07;101078.41;;;8.34;84.89
70011;BME280;59543;37.950;-122.338;2023-01-29T08:40:34;101074.88;;;8.45;83.01
70011;BME280;59543;37.950;-122.338;2023-01-29T08:43:04;101071.22;;;8.46;82.23
70011;BME280;59543;37.950;-122.338;2023-01-29T08:45:32;101063.53;;;8.41;81.66
70011;BME280;59543;37.950;-122.338;2023-01-29T08:47:57;101061.34;;;8.46;81.01
70011;BME280;59543;37.950;-122.338;2023-01-29T08:50:23;101062.59;;;8.42;81.27
70011;BME280;59543;37.950;-122.338;2023-01-29T08:52:49;101062.06;;;8.37;81.01
70011;BME280;59543;37.950;-122.338;2023-01-29T08:55:15;101066.22;;;8.41;80.99
70011;BME280;59543;37.950;-122.338;2023-01-29T08:57:41;101069.16;;;8.38;81.35
70011;BME280;59543;37.950;-122.338;2023-01-29T09:00:08;101073.44;;;8.41;79.84
70011;BME280;59543;37.950;-122.338;2023-01-29T09:02:35;101062.19;;;8.47;79.21
70011;BME280;59543;37.950;-122.338;2023-01-29T09:05:01;101070.19;;;8.58;78.74
70011;BME280;59543;37.950;-122.338;2023-01-29T09:07:27;101066.31;;;8.51;78.85
70011;BME280;59543;37.950;-122.338;2023-01-29T09:09:53;101059.50;;;8.47;79.24
70011;BME280;59543;37.950;-122.338;2023-01-29T09:12:19;101067.31;;;8.39;78.91
70011;BME280;59543;37.950;-122.338;2023-01-29T09:14:45;101066.47;;;8.38;78.62
70011;BME280;59543;37.950;-122.338;2023-01-29T09:17:11;101064.75;;;8.49;77.77
70011;BME280;59543;37.950;-122.338;2023-01-29T09:19:37;101062.44;;;8.44;77.57
70011;BME280;59543;37.950;-122.338;2023-01-29T09:22:02;101059.16;;;8.29;78.18
70011;BME280;59543;37.950;-122.338;2023-01-29T09:24:28;101055.41;;;8.43;77.02
70011;BME280;59543;37.950;-122.338;2023-01-29T09:26:54;101050.19;;;8.19;78.00
70011;BME280;59543;37.950;-122.338;2023-01-29T09:29:20;101033.38;;;8.17;78.01
70011;BME280;59543;37.950;-122.338;2023-01-29T09:31:46;101026.41;;;8.25;77.11
70011;BME280;59543;37.950;-122.338;2023-01-29T09:34:12;101024.59;;;8.26;77.21
70011;BME280;59543;37.950;-122.338;2023-01-29T09:36:38;101015.25;;;8.09;77.71
70011;BME280;59543;37.950;-122.338;2023-01-29T09:39:04;101012.88;;;8.27;77.18
70011;BME280;59543;37.950;-122.338;2023-01-29T09:44:10;101005.44;;;7.98;77.62
70011;BME280;59543;37.950;-122.338;2023-01-29T09:46:42;101001.66;;;8.01;77.76
70011;BME280;59543;37.950;-122.338;2023-01-29T09:49:28;101005.44;;;7.98;77.26
70011;BME280;59543;37.950;-122.338;2023-01-29T09:52:06;101019.81;;;7.86;77.38
70011;BME280;59543;37.950;-122.338;2023-01-29T09:54:41;101012.22;;;8.14;76.07
70011;BME280;59543;37.950;-122.338;2023-01-29T09:57:21;101011.19;;;7.83;76.81
70011;BME280;59543;37.950;-122.338;2023-01-29T09:59:49;101017.41;;;7.72;77.05
70011;BME280;59543;37.950;-122.338;2023-01-29T10:04:52;101013.72;;;7.95;75.77
70011;BME280;59543;37.950;-122.338;2023-01-29T10:07:42;101013.63;;;7.74;75.96
70011;BME280;59543;37.950;-122.338;2023-01-29T10:10:27;101012.69;;;7.64;76.91
70011;BME280;59543;37.950;-122.338;2023-01-29T10:23:33;101003.00;;;7.95;78.87
70011;BME280;59543;37.950;-122.338;2023-01-29T10:26:01;100995.97;;;7.83;79.88
70011;BME280;59543;37.950;-122.338;2023-01-29T10:28:38;100995.59;;;7.88;78.67
70011;BME280;59543;37.950;-122.338;2023-01-29T10:31:40;101004.88;;;7.72;78.93
70011;BME280;59543;37.950;-122.338;2023-01-29T10:34:08;101004.44;;;7.99;77.13
70011;BME280;59543;37.950;-122.338;2023-01-29T10:39:11;100990.16;;;7.67;76.04
70011;BME280;59543;37.950;-122.338;2023-01-29T10:54:23;100988.84;;;7.61;73.16
70011;BME280;59543;37.950;-122.338;2023-01-29T11:02:14;100990.44;;;7.52;73.96
70011;BME280;59543;37.950;-122.338;2023-01-29T11:04:42;100976.81;;;7.44;74.37
70011;BME280;59543;37.950;-122.338;2023-01-29T11:07:08;100973.03;;;7.47;74.19
70011;BME280;59543;37.950;-122.338;2023-01-29T11:09:36;100975.13;;;7.43;74.26
70011;BME280;59543;37.950;-122.338;2023-01-29T11:12:05;100969.03;;;7.30;74.95
70011;BME280;59543;37.950;-122.338;2023-01-29T11:17:01;100962.09;;;7.39;74.65
70011;BME280;59543;37.950;-122.338;2023-01-29T11:19:38;100954.53;;;7.21;74.92
70011;BME280;59543;37.950;-122.338;2023-01-29T11:22:04;100953.81;;;7.08;75.21
70011;BME280;59543;37.950;-122.338;2023-01-29T11:24:37;100964.41;;;6.98;75.58
70011;BME280;59543;37.950;-122.338;2023-01-29T11:27:03;100958.06;;;6.99;76.04
70011;BME280;59543;37.950;-122.338;2023-01-29T11:29:39;100963.44;;;7.10;75.38
70011;BME280;59543;37.950;-122.338;2023-01-29T11:32:07;100965.13;;;7.00;75.57
70011;BME280;59543;37.950;-122.338;2023-01-29T11:34:37;100958.69;;;6.80;76.59
70011;BME280;59543;37.950;-122.338;2023-01-29T11:37:20;100955.66;;;6.96;76.19
70011;BME280;59543;37.950;-122.338;2023-01-29T11:39:46;100953.06;;;6.95;76.18
70011;BME280;59543;37.950;-122.338;2023-01-29T11:42:21;100952.13;;;7.07;76.24
70011;BME280;59543;37.950;-122.338;2023-01-29T11:44:47;100951.63;;;7.02;76.67
70011;BME280;59543;37.950;-122.338;2023-01-29T11:49:40;100964.66;;;6.95;76.56
70011;BME280;59543;37.950;-122.338;2023-01-29T11:52:09;100954.03;;;6.82;77.33
70011;BME280;59543;37.950;-122.338;2023-01-29T11:54:55;100955.88;;;6.93;77.46
70011;BME280;59543;37.950;-122.338;2023-01-29T11:57:23;100949.44;;;6.96;76.53
70011;BME280;59543;37.950;-122.338;2023-01-29T11:59:51;100953.06;;;6.95;76.74
70011;BME280;59543;37.950;-122.338;2023-01-29T12:02:25;100947.47;;;6.98;76.64
70011;BME280;59543;37.950;-122.338;2023-01-29T12:04:53;100947.63;;;6.96;76.73
70011;BME280;59543;37.950;-122.338;2023-01-29T12:07:20;100943.72;;;7.12;76.12
70011;BME280;59543;37.950;-122.338;2023-01-29T12:09:48;100940.94;;;7.13;75.61
70011;BME280;59543;37.950;-122.338;2023-01-29T12:14:46;100933.53;;;7.17;74.86
70011;BME280;59543;37.950;-122.338;2023-01-29T12:17:26;100932.53;;;7.18;74.55
70011;BME280;59543;37.950;-122.338;2023-01-29T12:19:57;100930.84;;;7.17;73.77
70011;BME280;59543;37.950;-122.338;2023-01-29T12:28:14;100912.72;;;7.09;73.93
70011;BME280;59543;37.950;-122.338;2023-01-29T12:35:52;100916.00;;;7.24;72.44
70011;BME280;59543;37.950;-122.338;2023-01-29T12:38:22;100913.06;;;7.16;72.60
70011;BME280;59543;37.950;-122.338;2023-01-29T12:40:50;100908.13;;;7.22;71.64
70011;BME280;59543;37.950;-122.338;2023-01-29T12:43:24;100918.31;;;7.17;72.36
70011;BME280;59543;37.950;-122.338;2023-01-29T12:45:52;100908.22;;;7.09;72.04
70011;BME280;59543;37.950;-122.338;2023-01-29T12:48:22;100909.69;;;7.02;72.31
70011;BME280;59543;37.950;-122.338;2023-01-29T12:50:48;100917.97;;;6.99;72.41
70011;BME280;59543;37.950;-122.338;2023-01-29T12:53:34;100911.13;;;7.18;71.88
70011;BME280;59543;37.950;-122.338;2023-01-29T12:56:08;100909.69;;;6.91;72.96
70011;BME280;59543;37.950;-122.338;2023-01-29T12:58:40;100894.13;;;6.96;73.32
70011;BME280;59543;37.950;-122.338;2023-01-29T13:03:47;100890.97;;;7.02;73.05
70011;BME280;59543;37.950;-122.338;2023-01-29T13:06:16;100893.41;;;6.94;73.44
70011;BME280;59543;37.950;-122.338;2023-01-29T13:17:16;100882.28;;;7.32;72.90
70011;BME280;59543;37.950;-122.338;2023-01-29T13:19:44;100884.38;;;7.40;73.14
70011;BME280;59543;37.950;-122.338;2023-01-29T13:24:44;100882.66;;;7.39;73.37
70011;BME280;59543;37.950;-122.338;2023-01-29T13:27:29;100878.84;;;7.53;72.24
70011;BME280;59543;37.950;-122.338;2023-01-29T13:29:55;100872.75;;;7.51;72.00
70011;BME280;59543;37.950;-122.338;2023-01-29T13:32:25;100869.50;;;7.36;72.33
70011;BME280;59543;37.950;-122.338;2023-01-29T13:34:52;100865.38;;;7.43;71.10
70011;BME280;59543;37.950;-122.338;2023-01-29T13:39:55;100874.38;;;7.31;71.84
70011;BME280;59543;37.950;-122.338;2023-01-29T13:42:37;100858.13;;;7.23;71.52
70011;BME280;59543;37.950;-122.338;2023-01-29T13:45:05;100845.59;;;7.12;72.02
70011;BME280;59543;37.950;-122.338;2023-01-29T13:47:32;100845.34;;;7.26;71.07
70011;BME280;59543;37.950;-122.338;2023-01-29T13:50:08;100842.81;;;7.14;71.21
70011;BME280;59543;37.950;-122.338;2023-01-29T13:52:42;100838.97;;;6.95;71.94
70011;BME280;59543;37.950;-122.338;2023-01-29T13:57:46;100833.38;;;6.76;72.70
70011;BME280;59543;37.950;-122.338;2023-01-29T14:02:41;100835.81;;;6.56;73.02
70011;BME280;59543;37.950;-122.338;2023-01-29T14:07:51;100850.84;;;6.80;72.47
70011;BME280;59543;37.950;-122.338;2023-01-29T14:10:18;100844.06;;;6.64;72.39
70011;BME280;59543;37.950;-122.338;2023-01-29T14:12:45;100855.47;;;6.33;73.54
70011;BME280;59543;37.950;-122.338;2023-01-29T14:15:15;100842.06;;;6.22;74.50
70011;BME280;59543;37.950;-122.338;2023-01-29T14:20:22;100844.19;;;5.94;75.37
70011;BME280;59543;37.950;-122.338;2023-01-29T14:22:55;100853.72;;;5.85;75.85
70011;BME280;59543;37.950;-122.338;2023-01-29T14:25:27;100861.09;;;5.82;76.06
70011;BME280;59543;37.950;-122.338;2023-01-29T14:27:54;100859.69;;;5.65;76.21
70011;BME280;59543;37.950;-122.338;2023-01-29T14:30:21;100849.69;;;5.56;76.06
70011;BME280;59543;37.950;-122.338;2023-01-29T14:32:47;100856.88;;;5.55;76.46
70011;BME280;59543;37.950;-122.338;2023-01-29T14:35:21;100857.59;;;5.57;76.28
70011;BME280;59543;37.950;-122.338;2023-01-29T14:37:48;100858.00;;;5.64;75.79
70011;BME280;59543;37.950;-122.338;2023-01-29T14:42:54;100855.63;;;5.24;78.06
70011;BME280;59543;37.950;-122.338;2023-01-29T14:45:34;100853.09;;;5.10;78.92
70011;BME280;59543;37.950;-122.338;2023-01-29T14:55:26;100849.94;;;4.92;78.45
70011;BME280;59543;37.950;-122.338;2023-01-29T14:57:54;100851.84;;;4.90;77.89